sensor_id;sensor_type;location;lat;lon;timestamp;temperature;humidity
4376;DHT22;2202;50.866;12.750;2023-04-29T00:01:07;11.00;98.40
4376;DHT22;2202;50.866;12.750;2023-04-29T00:03:34;11.00;98.30
4376;DHT22;2202;50.866;12.750;2023-04-29T00:06:01;11.00;98.30
4376;DHT22;2202;50.866;12.750;2023-04-29T00:08:28;11.00;98.20
4376;DHT22;2202;50.866;12.750;2023-04-29T00:10:55;11.10;98.10
4376;DHT22;2202;50.866;12.750;2023-04-29T00:13:21;11.10;98.00
4376;DHT22;2202;50.866;12.750;2023-04-29T00:15:48;11.20;97.90
4376;DHT22;2202;50.866;12.750;2023-04-29T00:18:16;11.10;97.80
4376;DHT22;2202;50.866;12.750;2023-04-29T00:20:43;11.10;97.70
4376;DHT22;2202;50.866;12.750;2023-04-29T00:23:10;11.10;97.70
4376;DHT22;2202;50.866;12.750;2023-04-29T00:25:37;11.10;97.60
4376;DHT22;2202;50.866;12.750;2023-04-29T00:28:04;11.10;97.70
4376;DHT22;2202;50.866;12.750;2023-04-29T00:30:31;11.10;97.90
4376;DHT22;2202;50.866;12.750;2023-04-29T00:32:59;11.00;98.00
4376;DHT22;2202;50.866;12.750;2023-04-29T00:35:27;11.00;98.20
4376;DHT22;2202;50.866;12.750;2023-04-29T00:37:54;11.00;98.10
4376;DHT22;2202;50.866;12.750;2023-04-29T00:40:21;11.00;98.20
4376;DHT22;2202;50.866;12.750;2023-04-29T00:42:48;11.00;98.50
4376;DHT22;2202;50.866;12.750;2023-04-29T00:45:15;11.00;98.70
4376;DHT22;2202;50.866;12.750;2023-04-29T00:47:42;11.00;98.80
4376;DHT22;2202;50.866;12.750;2023-04-29T00:50:09;10.90;98.90
4376;DHT22;2202;50.866;12.750;2023-04-29T00:52:38;10.90;99.10
4376;DHT22;2202;50.866;12.750;2023-04-29T00:55:06;10.90;99.20
4376;DHT22;2202;50.866;12.750;2023-04-29T00:57:33;10.90;99.20
4376;DHT22;2202;50.866;12.750;2023-04-29T01:00:00;10.80;99.40
4376;DHT22;2202;50.866;12.750;2023-04-29T01:02:28;10.80;99.60
4376;DHT22;2202;50.866;12.750;2023-04-29T01:04:55;10.80;99.70
4376;DHT22;2202;50.866;12.750;2023-04-29T01:07:30;10.80;99.60
4376;DHT22;2202;50.866;12.750;2023-04-29T01:10:05;10.80;99.40
4376;DHT22;2202;50.866;12.750;2023-04-29T01:12:43;10.90;99.10
4376;DHT22;2202;50.866;12.750;2023-04-29T01:15:18;11.00;98.90
4376;DHT22;2202;50.866;12.750;2023-04-29T01:17:49;11.00;99.00
4376;DHT22;2202;50.866;12.750;2023-04-29T01:20:18;11.10;99.10
4376;DHT22;2202;50.866;12.750;2023-04-29T01:22:46;11.10;99.20
4376;DHT22;2202;50.866;12.750;2023-04-29T01:25:14;11.10;99.20
4376;DHT22;2202;50.866;12.750;2023-04-29T01:27:47;11.20;99.30
4376;DHT22;2202;50.866;12.750;2023-04-29T01:30:26;11.30;99.10
4376;DHT22;2202;50.866;12.750;2023-04-29T01:32:59;11.30;99.00
4376;DHT22;2202;50.866;12.750;2023-04-29T01:35:40;11.30;99.00
4376;DHT22;2202;50.866;12.750;2023-04-29T01:38:16;11.30;99.10
4376;DHT22;2202;50.866;12.750;2023-04-29T01:40:52;11.40;99.00
4376;DHT22;2202;50.866;12.750;2023-04-29T01:43:24;11.40;98.80
4376;DHT22;2202;50.866;12.750;2023-04-29T01:45:55;11.30;99.10
4376;DHT22;2202;50.866;12.750;2023-04-29T01:48:23;11.30;99.30
4376;DHT22;2202;50.866;12.750;2023-04-29T01:50:50;11.40;99.20
4376;DHT22;2202;50.866;12.750;2023-04-29T01:53:17;11.40;99.10
4376;DHT22;2202;50.866;12.750;2023-04-29T01:55:44;11.40;99.20
4376;DHT22;2202;50.866;12.750;2023-04-29T01:58:12;11.40;99.10
4376;DHT22;2202;50.866;12.750;2023-04-29T02:00:39;11.40;99.20
4376;DHT22;2202;50.866;12.750;2023-04-29T02:03:07;11.40;99.30
4376;DHT22;2202;50.866;12.750;2023-04-29T02:05:34;11.40;99.20
4376;DHT22;2202;50.866;12.750;2023-04-29T02:08:01;11.40;99.20
4376;DHT22;2202;50.866;12.750;2023-04-29T02:10:28;11.50;99.10
4376;DHT22;2202;50.866;12.750;2023-04-29T02:12:55;11.50;98.80
4376;DHT22;2202;50.866;12.750;2023-04-29T02:15:25;11.40;98.80
4376;DHT22;2202;50.866;12.750;2023-04-29T02:17:52;11.50;98.80
4376;DHT22;2202;50.866;12.750;2023-04-29T02:20:19;11.50;98.80
4376;DHT22;2202;50.866;12.750;2023-04-29T02:22:46;11.60;98.50
4376;DHT22;2202;50.866;12.750;2023-04-29T02:25:13;11.60;98.40
4376;DHT22;2202;50.866;12.750;2023-04-29T02:27:40;11.60;98.40
4376;DHT22;2202;50.866;12.750;2023-04-29T02:30:07;11.60;98.30
4376;DHT22;2202;50.866;12.750;2023-04-29T02:32:36;11.60;98.30
4376;DHT22;2202;50.866;12.750;2023-04-29T02:35:04;11.60;98.30
4376;DHT22;2202;50.866;12.750;2023-04-29T02:37:31;11.60;98.20
4376;DHT22;2202;50.866;12.750;2023-04-29T02:39:58;11.60;98.10
4376;DHT22;2202;50.866;12.750;2023-04-29T02:42:25;11.50;98.20
4376;DHT22;2202;50.866;12.750;2023-04-29T02:44:51;11.50;98.40
4376;DHT22;2202;50.866;12.750;2023-04-29T02:47:19;11.50;98.50
4376;DHT22;2202;50.866;12.750;2023-04-29T02:49:47;11.40;98.60
4376;DHT22;2202;50.866;12.750;2023-04-29T02:52:14;11.40;98.80
4376;DHT22;2202;50.866;12.750;2023-04-29T02:54:41;11.40;98.60
4376;DHT22;2202;50.866;12.750;2023-04-29T02:57:08;11.40;98.60
4376;DHT22;2202;50.866;12.750;2023-04-29T02:59:35;11.40;98.60
4376;DHT22;2202;50.866;12.750;2023-04-29T03:02:02;11.40;98.60
4376;DHT22;2202;50.866;12.750;2023-04-29T03:04:29;11.50;98.50
4376;DHT22;2202;50.866;12.750;2023-04-29T03:06:57;11.40;98.50
4376;DHT22;2202;50.866;12.750;2023-04-29T03:09:24;11.40;98.60
4376;DHT22;2202;50.866;12.750;2023-04-29T03:11:51;11.40;98.50
4376;DHT22;2202;50.866;12.750;2023-04-29T03:14:18;11.30;98.80
4376;DHT22;2202;50.866;12.750;2023-04-29T03:16:44;11.40;98.80
4376;DHT22;2202;50.866;12.750;2023-04-29T03:19:11;11.30;98.60
4376;DHT22;2202;50.866;12.750;2023-04-29T03:21:38;11.30;98.80
4376;DHT22;2202;50.866;12.750;2023-04-29T03:24:07;11.30;98.90
4376;DHT22;2202;50.866;12.750;2023-04-29T03:26:33;11.30;98.80
4376;DHT22;2202;50.866;12.750;2023-04-29T03:29:00;11.30;98.70
4376;DHT22;2202;50.866;12.750;2023-04-29T03:31:27;11.30;98.50
4376;DHT22;2202;50.866;12.750;2023-04-29T03:33:54;11.40;98.30
4376;DHT22;2202;50.866;12.750;2023-04-29T03:36:21;11.40;98.30
4376;DHT22;2202;50.866;12.750;2023-04-29T03:38:48;11.40;98.10
4376;DHT22;2202;50.866;12.750;2023-04-29T03:41:16;11.40;98.00
4376;DHT22;2202;50.866;12.750;2023-04-29T03:43:43;11.40;98.00
4376;DHT22;2202;50.866;12.750;2023-04-29T03:46:10;11.40;98.00
4376;DHT22;2202;50.866;12.750;2023-04-29T03:48:37;11.40;97.80
4376;DHT22;2202;50.866;12.750;2023-04-29T03:51:04;11.40;97.90
4376;DHT22;2202;50.866;12.750;2023-04-29T03:53:31;11.30;98.10
4376;DHT22;2202;50.866;12.750;2023-04-29T03:55:58;11.30;98.10
4376;DHT22;2202;50.866;12.750;2023-04-29T03:58:26;11.30;98.10
4376;DHT22;2202;50.866;12.750;2023-04-29T04:00:53;11.30;98.10
4376;DHT22;2202;50.866;12.750;2023-04-29T04:03:20;11.30;98.00
4376;DHT22;2202;50.866;12.750;2023-04-29T04:05:50;11.30;97.90
4376;DHT22;2202;50.866;12.750;2023-04-29T04:08:17;11.40;97.90
4376;DHT22;2202;50.866;12.750;2023-04-29T04:10:43;11.40;97.90
4376;DHT22;2202;50.866;12.750;2023-04-29T04:13:10;11.30;98.00
4376;DHT22;2202;50.866;12.750;2023-04-29T04:15:39;11.30;98.10
4376;DHT22;2202;50.866;12.750;2023-04-29T04:18:07;11.30;98.10
4376;DHT22;2202;50.866;12.750;2023-04-29T04:20:35;11.30;98.10
4376;DHT22;2202;50.866;12.750;2023-04-29T04:23:02;11.30;98.10
4376;DHT22;2202;50.866;12.750;2023-04-29T04:25:29;11.40;97.90
4376;DHT22;2202;50.866;12.750;2023-04-29T04:27:56;11.30;98.10
4376;DHT22;2202;50.866;12.750;2023-04-29T04:30:23;11.20;98.40
4376;DHT22;2202;50.866;12.750;2023-04-29T04:32:51;11.20;98.60
4376;DHT22;2202;50.866;12.750;2023-04-29T04:35:18;11.20;98.60
4376;DHT22;2202;50.866;12.750;2023-04-29T04:37:44;11.30;98.50
4376;DHT22;2202;50.866;12.750;2023-04-29T04:40:12;11.30;98.30
4376;DHT22;2202;50.866;12.750;2023-04-29T04:42:39;11.40;98.30
4376;DHT22;2202;50.866;12.750;2023-04-29T04:45:07;11.40;98.20
4376;DHT22;2202;50.866;12.750;2023-04-29T04:47:35;11.50;98.00
4376;DHT22;2202;50.866;12.750;2023-04-29T04:50:05;11.50;97.90
4376;DHT22;2202;50.866;12.750;2023-04-29T04:52:32;11.50;97.80
4376;DHT22;2202;50.866;12.750;2023-04-29T04:54:59;11.50;97.90
4376;DHT22;2202;50.866;12.750;2023-04-29T04:57:26;11.50;98.00
4376;DHT22;2202;50.866;12.750;2023-04-29T04:59:53;11.40;98.00
4376;DHT22;2202;50.866;12.750;2023-04-29T05:02:20;11.40;98.20
4376;DHT22;2202;50.866;12.750;2023-04-29T05:04:47;11.40;98.10
4376;DHT22;2202;50.866;12.750;2023-04-29T05:07:15;11.40;97.90
4376;DHT22;2202;50.866;12.750;2023-04-29T05:09:42;11.50;97.80
4376;DHT22;2202;50.866;12.750;2023-04-29T05:12:08;11.40;97.70
4376;DHT22;2202;50.866;12.750;2023-04-29T05:14:36;11.30;97.70
4376;DHT22;2202;50.866;12.750;2023-04-29T05:17:02;11.30;98.00
4376;DHT22;2202;50.866;12.750;2023-04-29T05:19:29;11.30;98.00
4376;DHT22;2202;50.866;12.750;2023-04-29T05:21:56;11.30;98.20
4376;DHT22;2202;50.866;12.750;2023-04-29T05:24:24;11.30;98.40
4376;DHT22;2202;50.866;12.750;2023-04-29T05:26:51;11.20;98.50
4376;DHT22;2202;50.866;12.750;2023-04-29T05:29:18;11.10;98.70
4376;DHT22;2202;50.866;12.750;2023-04-29T05:31:45;11.20;98.90
4376;DHT22;2202;50.866;12.750;2023-04-29T05:34:12;11.30;98.90
4376;DHT22;2202;50.866;12.750;2023-04-29T05:36:39;11.20;98.90
4376;DHT22;2202;50.866;12.750;2023-04-29T05:39:06;11.20;98.90
4376;DHT22;2202;50.866;12.750;2023-04-29T05:41:34;11.20;98.80
4376;DHT22;2202;50.866;12.750;2023-04-29T05:44:01;11.20;98.70
4376;DHT22;2202;50.866;12.750;2023-04-29T05:46:28;11.20;99.00
4376;DHT22;2202;50.866;12.750;2023-04-29T05:48:55;11.20;99.00
4376;DHT22;2202;50.866;12.750;2023-04-29T05:51:22;11.20;99.00
4376;DHT22;2202;50.866;12.750;2023-04-29T05:53:48;11.20;99.00
4376;DHT22;2202;50.866;12.750;2023-04-29T05:56:15;11.20;99.00
4376;DHT22;2202;50.866;12.750;2023-04-29T05:58:43;11.20;99.10
4376;DHT22;2202;50.866;12.750;2023-04-29T06:01:10;11.10;99.10
4376;DHT22;2202;50.866;12.750;2023-04-29T06:03:37;11.00;99.80
4376;DHT22;2202;50.866;12.750;2023-04-29T06:06:04;11.00;99.90
4376;DHT22;2202;50.866;12.750;2023-04-29T06:08:31;11.10;99.70
4376;DHT22;2202;50.866;12.750;2023-04-29T06:10:58;11.10;99.80
4376;DHT22;2202;50.866;12.750;2023-04-29T06:13:25;11.10;99.90
4376;DHT22;2202;50.866;12.750;2023-04-29T06:15:53;11.00;99.60
4376;DHT22;2202;50.866;12.750;2023-04-29T06:18:20;11.00;99.90
4376;DHT22;2202;50.866;12.750;2023-04-29T06:20:47;11.00;99.90
4376;DHT22;2202;50.866;12.750;2023-04-29T06:23:14;11.00;99.90
4376;DHT22;2202;50.866;12.750;2023-04-29T06:25:41;11.00;99.90
4376;DHT22;2202;50.866;12.750;2023-04-29T06:28:08;11.00;99.90
4376;DHT22;2202;50.866;12.750;2023-04-29T06:30:34;11.10;99.90
4376;DHT22;2202;50.866;12.750;2023-04-29T06:33:03;11.10;99.90
4376;DHT22;2202;50.866;12.750;2023-04-29T06:35:30;11.20;99.90
4376;DHT22;2202;50.866;12.750;2023-04-29T06:37:57;11.10;99.90
4376;DHT22;2202;50.866;12.750;2023-04-29T06:40:24;11.20;99.90
4376;DHT22;2202;50.866;12.750;2023-04-29T06:42:50;11.20;99.90
4376;DHT22;2202;50.866;12.750;2023-04-29T06:45:17;11.20;99.80
4376;DHT22;2202;50.866;12.750;2023-04-29T06:47:44;11.20;99.80
4376;DHT22;2202;50.866;12.750;2023-04-29T06:50:12;11.20;99.80
4376;DHT22;2202;50.866;12.750;2023-04-29T06:52:39;11.20;99.80
4376;DHT22;2202;50.866;12.750;2023-04-29T06:55:07;11.30;99.90
4376;DHT22;2202;50.866;12.750;2023-04-29T06:57:35;11.20;99.80
4376;DHT22;2202;50.866;12.750;2023-04-29T07:00:03;11.20;99.90
4376;DHT22;2202;50.866;12.750;2023-04-29T07:02:30;11.20;99.90
4376;DHT22;2202;50.866;12.750;2023-04-29T07:04:57;11.20;99.90
4376;DHT22;2202;50.866;12.750;2023-04-29T07:07:25;11.40;99.90
4376;DHT22;2202;50.866;12.750;2023-04-29T07:09:52;11.60;99.90
4376;DHT22;2202;50.866;12.750;2023-04-29T07:12:19;11.80;99.90
4376;DHT22;2202;50.866;12.750;2023-04-29T07:14:46;12.00;99.50
4376;DHT22;2202;50.866;12.750;2023-04-29T07:17:13;12.00;98.50
4376;DHT22;2202;50.866;12.750;2023-04-29T07:19:40;11.80;98.40
4376;DHT22;2202;50.866;12.750;2023-04-29T07:22:07;11.90;98.70
4376;DHT22;2202;50.866;12.750;2023-04-29T07:24:35;11.80;98.70
4376;DHT22;2202;50.866;12.750;2023-04-29T07:27:02;11.80;98.20
4376;DHT22;2202;50.866;12.750;2023-04-29T07:29:29;11.70;98.10
4376;DHT22;2202;50.866;12.750;2023-04-29T07:31:57;11.70;97.80
4376;DHT22;2202;50.866;12.750;2023-04-29T07:34:23;11.80;97.90
4376;DHT22;2202;50.866;12.750;2023-04-29T07:36:50;11.90;98.30
4376;DHT22;2202;50.866;12.750;2023-04-29T07:39:17;12.00;97.20
4376;DHT22;2202;50.866;12.750;2023-04-29T07:41:45;12.00;97.30
4376;DHT22;2202;50.866;12.750;2023-04-29T07:44:12;12.20;96.90
4376;DHT22;2202;50.866;12.750;2023-04-29T07:46:39;12.30;96.70
4376;DHT22;2202;50.866;12.750;2023-04-29T07:49:06;12.20;96.10
4376;DHT22;2202;50.866;12.750;2023-04-29T07:51:33;12.20;95.30
4376;DHT22;2202;50.866;12.750;2023-04-29T07:54:00;12.00;95.60
4376;DHT22;2202;50.866;12.750;2023-04-29T07:56:27;11.90;95.90
4376;DHT22;2202;50.866;12.750;2023-04-29T07:58:55;12.00;95.90
4376;DHT22;2202;50.866;12.750;2023-04-29T08:01:22;12.00;95.40
4376;DHT22;2202;50.866;12.750;2023-04-29T08:03:49;12.10;96.10
4376;DHT22;2202;50.866;12.750;2023-04-29T08:06:16;12.20;95.70
4376;DHT22;2202;50.866;12.750;2023-04-29T08:08:45;12.30;94.80
4376;DHT22;2202;50.866;12.750;2023-04-29T08:11:15;12.30;95.00
4376;DHT22;2202;50.866;12.750;2023-04-29T08:13:42;12.30;94.20
4376;DHT22;2202;50.866;12.750;2023-04-29T08:16:10;12.20;94.10
4376;DHT22;2202;50.866;12.750;2023-04-29T08:18:37;12.20;94.40
4376;DHT22;2202;50.866;12.750;2023-04-29T08:21:05;12.10;94.40
4376;DHT22;2202;50.866;12.750;2023-04-29T08:23:32;12.00;93.20
4376;DHT22;2202;50.866;12.750;2023-04-29T08:26:00;12.00;93.30
4376;DHT22;2202;50.866;12.750;2023-04-29T08:28:28;11.60;92.60
4376;DHT22;2202;50.866;12.750;2023-04-29T08:30:55;11.50;94.40
4376;DHT22;2202;50.866;12.750;2023-04-29T08:33:23;11.50;95.00
4376;DHT22;2202;50.866;12.750;2023-04-29T08:35:57;11.50;95.30
4376;DHT22;2202;50.866;12.750;2023-04-29T08:38:24;11.50;95.40
4376;DHT22;2202;50.866;12.750;2023-04-29T08:40:52;11.50;94.50
4376;DHT22;2202;50.866;12.750;2023-04-29T08:43:19;11.50;94.70
4376;DHT22;2202;50.866;12.750;2023-04-29T08:45:47;11.60;94.90
4376;DHT22;2202;50.866;12.750;2023-04-29T08:48:15;11.60;93.70
4376;DHT22;2202;50.866;12.750;2023-04-29T08:50:44;11.50;93.70
4376;DHT22;2202;50.866;12.750;2023-04-29T08:53:12;11.50;94.30
4376;DHT22;2202;50.866;12.750;2023-04-29T08:55:41;11.60;93.90
4376;DHT22;2202;50.866;12.750;2023-04-29T08:58:08;11.60;94.30
4376;DHT22;2202;50.866;12.750;2023-04-29T09:00:35;11.50;94.40
4376;DHT22;2202;50.866;12.750;2023-04-29T09:03:11;11.40;95.30
4376;DHT22;2202;50.866;12.750;2023-04-29T09:05:40;11.40;96.10
4376;DHT22;2202;50.866;12.750;2023-04-29T09:08:10;11.50;95.90
4376;DHT22;2202;50.866;12.750;2023-04-29T09:10:38;11.50;95.30
4376;DHT22;2202;50.866;12.750;2023-04-29T09:13:07;11.50;95.20
4376;DHT22;2202;50.866;12.750;2023-04-29T09:15:35;11.70;95.50
4376;DHT22;2202;50.866;12.750;2023-04-29T09:18:05;11.70;95.20
4376;DHT22;2202;50.866;12.750;2023-04-29T09:20:31;11.90;94.60
4376;DHT22;2202;50.866;12.750;2023-04-29T09:23:00;11.90;94.20
4376;DHT22;2202;50.866;12.750;2023-04-29T09:25:29;11.80;93.60
4376;DHT22;2202;50.866;12.750;2023-04-29T09:27:56;12.00;94.30
4376;DHT22;2202;50.866;12.750;2023-04-29T09:30:23;12.10;93.80
4376;DHT22;2202;50.866;12.750;2023-04-29T09:33:05;12.30;92.90
4376;DHT22;2202;50.866;12.750;2023-04-29T09:35:32;12.40;93.70
4376;DHT22;2202;50.866;12.750;2023-04-29T09:38:08;12.50;92.40
4376;DHT22;2202;50.866;12.750;2023-04-29T09:40:37;12.50;92.70
4376;DHT22;2202;50.866;12.750;2023-04-29T09:43:10;12.60;92.90
4376;DHT22;2202;50.866;12.750;2023-04-29T09:45:39;12.50;92.30
4376;DHT22;2202;50.866;12.750;2023-04-29T09:48:08;12.40;92.50
4376;DHT22;2202;50.866;12.750;2023-04-29T09:50:35;12.50;92.80
4376;DHT22;2202;50.866;12.750;2023-04-29T09:53:03;12.50;92.40
4376;DHT22;2202;50.866;12.750;2023-04-29T09:55:31;12.30;92.30
4376;DHT22;2202;50.866;12.750;2023-04-29T09:57:59;12.30;92.70
4376;DHT22;2202;50.866;12.750;2023-04-29T10:00:29;12.10;92.10
4376;DHT22;2202;50.866;12.750;2023-04-29T10:02:58;11.90;92.80
4376;DHT22;2202;50.866;12.750;2023-04-29T10:05:27;11.80;93.50
4376;DHT22;2202;50.866;12.750;2023-04-29T10:07:57;11.60;94.00
4376;DHT22;2202;50.866;12.750;2023-04-29T10:10:24;11.50;94.40
4376;DHT22;2202;50.866;12.750;2023-04-29T10:12:54;11.60;94.80
4376;DHT22;2202;50.866;12.750;2023-04-29T10:15:28;11.60;94.80
4376;DHT22;2202;50.866;12.750;2023-04-29T10:18:00;11.70;94.60
4376;DHT22;2202;50.866;12.750;2023-04-29T10:20:28;11.70;94.30
4376;DHT22;2202;50.866;12.750;2023-04-29T10:22:56;11.70;93.80
4376;DHT22;2202;50.866;12.750;2023-04-29T10:25:25;11.50;93.70
4376;DHT22;2202;50.866;12.750;2023-04-29T10:27:54;11.40;94.00
4376;DHT22;2202;50.866;12.750;2023-04-29T10:30:23;11.30;94.50
4376;DHT22;2202;50.866;12.750;2023-04-29T10:32:50;11.20;95.40
4376;DHT22;2202;50.866;12.750;2023-04-29T10:35:18;11.10;95.70
4376;DHT22;2202;50.866;12.750;2023-04-29T10:37:47;11.00;96.50
4376;DHT22;2202;50.866;12.750;2023-04-29T10:40:16;10.90;96.80
4376;DHT22;2202;50.866;12.750;2023-04-29T10:42:47;10.80;97.10
4376;DHT22;2202;50.866;12.750;2023-04-29T10:45:19;10.70;97.50
4376;DHT22;2202;50.866;12.750;2023-04-29T10:48:10;10.70;97.50
4376;DHT22;2202;50.866;12.750;2023-04-29T10:51:02;10.60;97.80
4376;DHT22;2202;50.866;12.750;2023-04-29T10:53:29;10.60;98.10
4376;DHT22;2202;50.866;12.750;2023-04-29T10:55:58;10.50;98.40
4376;DHT22;2202;50.866;12.750;2023-04-29T10:58:40;10.50;98.50
4376;DHT22;2202;50.866;12.750;2023-04-29T11:01:10;10.50;98.50
4376;DHT22;2202;50.866;12.750;2023-04-29T11:03:52;10.50;98.50
4376;DHT22;2202;50.866;12.750;2023-04-29T11:06:24;10.60;98.80
4376;DHT22;2202;50.866;12.750;2023-04-29T11:09:03;10.70;98.70
4376;DHT22;2202;50.866;12.750;2023-04-29T11:14:24;10.70;98.30
4376;DHT22;2202;50.866;12.750;2023-04-29T11:16:52;10.80;98.00
4376;DHT22;2202;50.866;12.750;2023-04-29T11:19:23;10.80;97.80
4376;DHT22;2202;50.866;12.750;2023-04-29T11:24:53;10.70;97.80
4376;DHT22;2202;50.866;12.750;2023-04-29T11:27:21;10.80;97.70
4376;DHT22;2202;50.866;12.750;2023-04-29T11:29:51;10.80;96.50
4376;DHT22;2202;50.866;12.750;2023-04-29T11:32:20;10.80;95.60
4376;DHT22;2202;50.866;12.750;2023-04-29T11:34:49;10.70;95.70
4376;DHT22;2202;50.866;12.750;2023-04-29T11:37:20;10.70;94.80
4376;DHT22;2202;50.866;12.750;2023-04-29T11:39:47;10.70;95.20
4376;DHT22;2202;50.866;12.750;2023-04-29T11:42:19;10.90;94.80
4376;DHT22;2202;50.866;12.750;2023-04-29T11:44:46;10.90;93.90
4376;DHT22;2202;50.866;12.750;2023-04-29T11:47:13;10.90;94.20
4376;DHT22;2202;50.866;12.750;2023-04-29T11:49:39;10.90;93.90
4376;DHT22;2202;50.866;12.750;2023-04-29T11:52:08;11.00;93.90
4376;DHT22;2202;50.866;12.750;2023-04-29T11:54:36;11.00;94.20
4376;DHT22;2202;50.866;12.750;2023-04-29T11:57:03;11.10;94.20
4376;DHT22;2202;50.866;12.750;2023-04-29T11:59:30;11.00;93.80
4376;DHT22;2202;50.866;12.750;2023-04-29T12:01:58;11.00;94.30
4376;DHT22;2202;50.866;12.750;2023-04-29T12:04:25;10.90;95.00
4376;DHT22;2202;50.866;12.750;2023-04-29T12:06:52;10.90;94.40
4376;DHT22;2202;50.866;12.750;2023-04-29T12:09:23;10.70;93.80
4376;DHT22;2202;50.866;12.750;2023-04-29T12:11:51;10.70;94.30
4376;DHT22;2202;50.866;12.750;2023-04-29T12:14:18;10.70;93.90
4376;DHT22;2202;50.866;12.750;2023-04-29T12:16:45;10.70;93.80
4376;DHT22;2202;50.866;12.750;2023-04-29T12:19:12;10.80;93.80
4376;DHT22;2202;50.866;12.750;2023-04-29T12:21:47;10.80;93.60
4376;DHT22;2202;50.866;12.750;2023-04-29T12:24:14;10.90;94.00
4376;DHT22;2202;50.866;12.750;2023-04-29T12:26:44;11.00;93.80
4376;DHT22;2202;50.866;12.750;2023-04-29T12:29:12;11.20;92.90
4376;DHT22;2202;50.866;12.750;2023-04-29T12:31:39;11.20;92.70
4376;DHT22;2202;50.866;12.750;2023-04-29T12:34:06;11.20;92.40
4376;DHT22;2202;50.866;12.750;2023-04-29T12:36:33;11.20;92.70
4376;DHT22;2202;50.866;12.750;2023-04-29T12:39:05;11.20;92.00
4376;DHT22;2202;50.866;12.750;2023-04-29T12:41:38;11.10;92.90
4376;DHT22;2202;50.866;12.750;2023-04-29T12:44:07;11.00;92.50
4376;DHT22;2202;50.866;12.750;2023-04-29T12:46:35;11.10;92.70
4376;DHT22;2202;50.866;12.750;2023-04-29T12:49:03;11.10;93.10
4376;DHT22;2202;50.866;12.750;2023-04-29T12:51:30;11.40;93.00
4376;DHT22;2202;50.866;12.750;2023-04-29T12:53:58;11.60;92.90
4376;DHT22;2202;50.866;12.750;2023-04-29T12:56:25;12.00;91.40
4376;DHT22;2202;50.866;12.750;2023-04-29T12:58:52;12.20;91.00
4376;DHT22;2202;50.866;12.750;2023-04-29T13:01:20;12.30;90.40
4376;DHT22;2202;50.866;12.750;2023-04-29T13:03:47;12.10;89.20
4376;DHT22;2202;50.866;12.750;2023-04-29T13:06:15;12.20;89.80
4376;DHT22;2202;50.866;12.750;2023-04-29T13:08:42;12.20;88.20
4376;DHT22;2202;50.866;12.750;2023-04-29T13:11:09;12.10;88.20
4376;DHT22;2202;50.866;12.750;2023-04-29T13:13:38;11.90;88.40
4376;DHT22;2202;50.866;12.750;2023-04-29T13:16:05;11.70;90.30
4376;DHT22;2202;50.866;12.750;2023-04-29T13:18:34;11.60;90.50
4376;DHT22;2202;50.866;12.750;2023-04-29T13:21:01;11.60;90.40
4376;DHT22;2202;50.866;12.750;2023-04-29T13:23:28;11.50;90.10
4376;DHT22;2202;50.866;12.750;2023-04-29T13:25:55;11.40;90.70
4376;DHT22;2202;50.866;12.750;2023-04-29T13:28:22;11.40;89.20
4376;DHT22;2202;50.866;12.750;2023-04-29T13:30:50;11.30;89.20
4376;DHT22;2202;50.866;12.750;2023-04-29T13:33:17;11.30;90.40
4376;DHT22;2202;50.866;12.750;2023-04-29T13:35:47;11.30;90.60
4376;DHT22;2202;50.866;12.750;2023-04-29T13:38:14;11.30;91.50
4376;DHT22;2202;50.866;12.750;2023-04-29T13:40:42;11.50;91.20
4376;DHT22;2202;50.866;12.750;2023-04-29T13:43:09;11.50;90.30
4376;DHT22;2202;50.866;12.750;2023-04-29T13:45:35;11.30;90.10
4376;DHT22;2202;50.866;12.750;2023-04-29T13:48:02;11.30;90.20
4376;DHT22;2202;50.866;12.750;2023-04-29T13:50:29;11.30;90.10
4376;DHT22;2202;50.866;12.750;2023-04-29T13:52:58;11.20;89.60
4376;DHT22;2202;50.866;12.750;2023-04-29T13:55:25;11.10;90.10
4376;DHT22;2202;50.866;12.750;2023-04-29T13:57:51;11.10;90.10
4376;DHT22;2202;50.866;12.750;2023-04-29T14:00:18;11.20;89.60
4376;DHT22;2202;50.866;12.750;2023-04-29T14:02:45;11.30;90.00
4376;DHT22;2202;50.866;12.750;2023-04-29T14:05:12;11.30;88.60
4376;DHT22;2202;50.866;12.750;2023-04-29T14:07:39;11.20;88.60
4376;DHT22;2202;50.866;12.750;2023-04-29T14:10:08;11.30;88.40
4376;DHT22;2202;50.866;12.750;2023-04-29T14:12:35;11.20;89.20
4376;DHT22;2202;50.866;12.750;2023-04-29T14:15:02;11.20;90.50
4376;DHT22;2202;50.866;12.750;2023-04-29T14:17:30;11.40;89.20
4376;DHT22;2202;50.866;12.750;2023-04-29T14:19:57;11.30;88.20
4376;DHT22;2202;50.866;12.750;2023-04-29T14:22:23;11.40;89.00
4376;DHT22;2202;50.866;12.750;2023-04-29T14:24:51;11.40;89.60
4376;DHT22;2202;50.866;12.750;2023-04-29T14:27:20;11.50;89.40
4376;DHT22;2202;50.866;12.750;2023-04-29T14:29:47;11.60;88.40
4376;DHT22;2202;50.866;12.750;2023-04-29T14:32:14;11.60;86.80
4376;DHT22;2202;50.866;12.750;2023-04-29T14:34:40;11.60;87.60
4376;DHT22;2202;50.866;12.750;2023-04-29T14:37:07;11.40;87.60
4376;DHT22;2202;50.866;12.750;2023-04-29T14:39:34;11.20;88.60
4376;DHT22;2202;50.866;12.750;2023-04-29T14:42:01;11.20;90.00
4376;DHT22;2202;50.866;12.750;2023-04-29T14:44:29;11.30;89.00
4376;DHT22;2202;50.866;12.750;2023-04-29T14:46:56;11.30;89.60
4376;DHT22;2202;50.866;12.750;2023-04-29T14:49:23;11.50;90.50
4376;DHT22;2202;50.866;12.750;2023-04-29T14:51:50;11.50;90.10
4376;DHT22;2202;50.866;12.750;2023-04-29T14:54:17;11.60;89.80
4376;DHT22;2202;50.866;12.750;2023-04-29T14:56:44;11.80;88.20
4376;DHT22;2202;50.866;12.750;2023-04-29T14:59:11;11.80;86.00
4376;DHT22;2202;50.866;12.750;2023-04-29T15:01:39;11.80;85.80
4376;DHT22;2202;50.866;12.750;2023-04-29T15:04:06;11.80;85.80
4376;DHT22;2202;50.866;12.750;2023-04-29T15:06:33;11.70;85.80
4376;DHT22;2202;50.866;12.750;2023-04-29T15:09:01;11.60;86.40
4376;DHT22;2202;50.866;12.750;2023-04-29T15:11:28;11.50;86.80
4376;DHT22;2202;50.866;12.750;2023-04-29T15:13:54;11.50;87.40
4376;DHT22;2202;50.866;12.750;2023-04-29T15:16:21;11.50;88.40
4376;DHT22;2202;50.866;12.750;2023-04-29T15:18:49;11.50;87.60
4376;DHT22;2202;50.866;12.750;2023-04-29T15:21:16;11.50;87.40
4376;DHT22;2202;50.866;12.750;2023-04-29T15:23:43;11.60;87.20
4376;DHT22;2202;50.866;12.750;2023-04-29T15:26:10;11.50;87.20
4376;DHT22;2202;50.866;12.750;2023-04-29T15:28:37;11.60;87.20
4376;DHT22;2202;50.866;12.750;2023-04-29T15:31:04;11.60;87.00
4376;DHT22;2202;50.866;12.750;2023-04-29T15:33:30;11.60;86.60
4376;DHT22;2202;50.866;12.750;2023-04-29T15:35:59;11.60;86.20
4376;DHT22;2202;50.866;12.750;2023-04-29T15:38:26;11.50;86.60
4376;DHT22;2202;50.866;12.750;2023-04-29T15:40:54;11.40;85.80
4376;DHT22;2202;50.866;12.750;2023-04-29T15:43:25;11.40;85.80
4376;DHT22;2202;50.866;12.750;2023-04-29T15:45:52;11.30;86.20
4376;DHT22;2202;50.866;12.750;2023-04-29T15:48:19;11.30;86.20
4376;DHT22;2202;50.866;12.750;2023-04-29T15:50:46;11.20;86.80
4376;DHT22;2202;50.866;12.750;2023-04-29T15:53:14;11.10;87.80
4376;DHT22;2202;50.866;12.750;2023-04-29T15:55:41;11.10;87.80